ADDS METAR Data INFO
IDs: Format: Raw Decoded Include TAF

Data at: 1838 UTC 17 Oct 2017

KBIS 171752Z 27012KT 10SM CLR 23/M01 A2987 RMK AO2 SLP117 T02281006 10228 21011 58013
KBIS 171652Z 24010KT 10SM CLR 20/00 A2989 RMK AO2 SLP122 T02000000
KBIS 171552Z 22007KT 10SM CLR 16/01 A2990 RMK AO2 SLP131 T01560006
KBIS 171452Z 00000KT 10SM CLR 08/02 A2991 RMK AO2 SLP136 T00780017 56007
KBIS 171352Z 08003KT 10SM CLR 03/M01 A2991 RMK AO2 SLP140 T00281006
KBIS 171252Z 10004KT 10SM CLR 01/M02 A2992 RMK AO2 SLP142 T00061017
KBIS 171152Z 10004KT 10SM CLR 01/M01 A2993 RMK AO2 SLP142 T00111006 10044 21006 58008
KBIS 171052Z 09005KT 10SM CLR 01/M01 A2994 RMK AO2 SLP143 T00111011
KBIS 170952Z 00000KT 10SM CLR 01/M01 A2996 RMK AO2 SLP149 T00111006
KBIS 170852Z 12003KT 10SM CLR 00/M02 A2996 RMK AO2 SLP149 T00001017 58007
KBIS 170752Z 00000KT 10SM CLR 02/M01 A2997 RMK AO2 SLP153 T00171011
KBIS 170652Z 00000KT 10SM CLR 02/M01 A2998 RMK AO2 SLP155 T00171011
KBIS 170552Z 00000KT 10SM CLR 04/00 A2998 RMK AO2 SLP155 T00440000 10178 20022 402331022 50002
KBIS 170452Z 00000KT 10SM CLR 06/01 A2999 RMK AO2 SLP159 T00610011
KBIS 170352Z AUTO 00000KT 10SM CLR 06/00 A2998 RMK AO2 SLP160 T00560000
KBIS 170252Z AUTO 24004KT 10SM CLR 09/01 A2997 RMK AO2 SLP157 T00940006 51008
KBIS 170152Z AUTO 00000KT 10SM CLR 12/01 A2997 RMK AO2 SLP156 T01170006
KBIS 170052Z AUTO 30003KT 10SM CLR 14/01 A2996 RMK AO2 SLP153 T01390006
KBIS 162352Z AUTO 31003KT 10SM CLR 17/00 A2995 RMK AO2 SLP149 T01720000 10233 20172 53008
KBIS 162252Z AUTO 30010G20KT 10SM CLR 22/M01 A2993 RMK AO2 SLP141 T02171006
KBIS 162152Z AUTO 29015G21KT 10SM CLR 22/M01 A2993 RMK AO2 PK WND 28027/2109 SLP139 T02221006
KBIS 162052Z AUTO 29015G22KT 10SM CLR 23/M01 A2992 RMK AO2 SLP138 T02331011 55015
KBIS 161952Z AUTO 27020G24KT 10SM CLR 23/01 A2992 RMK AO2 SLP137 T02280011
KBIS 161852Z 28019G24KT 10SM CLR 22/01 A2995 RMK AO2 SLP146 T02220011
KBIS 161752Z 28012G19KT 10SM CLR 21/02 A2997 RMK AO2 SLP153 T02060017 10206 21006 58009
KBIS 161652Z 26011KT 10SM CLR 18/01 A2997 RMK AO2 SLP157 T01830011
KBIS 161552Z 26013G19KT 10SM CLR 15/01 A2999 RMK AO2 SLP167 T01500006
KBIS 161452Z 27003KT 10SM CLR 10/01 A3000 RMK AO2 SLP170 T01000006 56015
KBIS 161352Z 25003KT 10SM CLR 06/M01 A3000 RMK AO2 SLP173 T00561006
KBIS 161252Z 00000KT 10SM CLR 02/M03 A3002 RMK AO2 SLP180 T00221028
KBIS 161152Z 00000KT 10SM CLR 01/M03 A3004 RMK AO2 SLP185 T00061028 10022 21022 58022
KBIS 161052Z 10005KT 10SM CLR M01/M03 A3006 RMK AO2 SLP192 T10061028
KBIS 160952Z AUTO 11005KT 10SM CLR 00/M02 A3009 RMK AO2 SLP200 T00001017
KBIS 160852Z AUTO 14004KT 10SM CLR M01/M03 A3011 RMK AO2 SLP207 T10111028 58019
KBIS 160752Z AUTO 00000KT 10SM CLR 00/M02 A3013 RMK AO2 SLP215 T00001022
KBIS 160652Z AUTO 12003KT 10SM CLR M01/M03 A3014 RMK AO2 SLP218 T10061028